Latest Weather Observations for Goulburn Airport

IDN60901

Issued at 11:01 am EST Monday 6 July 2015 (issued every 10 minutes, with the page automatically refreshed every 10 minutes)

About weather observations | Map of Canberra area stations | Latest observations for Canberra area | Other Formats
Station Details ID: 070330 Name: GOULBURN AIRPORT AWS Lat: -34.81 Lon: 149.73 Height: 640.0 m
Data from the previous 72 hours. | See also: Recent months at Goulburn Airport
Date/Time
EST
Tmp

°C
App
Tmp
°C
Dew
Point
°C
Rel
Hum
%
Delta-T

°C
Wind Press
QNH
hPa
Press
MSL
hPa
Rain
since
9 am
mm
Dir
 
Spd
km/h
Gust
km/h
Spd
kts
Gust
kts
06/11:00am 7.6 0.9 1.5 65 2.6 W 26 37 14 20 1016.2 1017.3 0.0
06/10:30am 7.2 0.1 1.3 66 2.5 WNW 28 39 15 21 1016.4 1017.5 0.0
06/10:00am 6.4 -2.1 0.9 68 2.3 WNW 35 44 19 24 1016.3 1017.4 0.0
06/09:30am 6.1 -0.9 1.8 74 1.8 WNW 28 35 15 19 1016.4 1017.5 0.0
06/08:30am 4.1 -0.9 1.1 81 1.2 WNW 17 22 9 12 1016.8 1017.8 0.0
06/08:00am 3.2 -0.7 1.1 86 0.8 WNW 11 17 6 9 1016.7 1017.7 0.0
06/07:30am 0.8 -1.3 -1.1 87 0.7 CALM 0 2 0 1 1016.7 1017.7 0.0
06/07:00am 1.2 -2.6 -0.6 88 0.7 NE 9 11 5 6 1016.4 1017.5 0.0
06/06:30am 2.2 -1.8 0.6 89 0.6 NE 11 13 6 7 1016.4 1017.5 0.0
06/06:00am 2.7 -1.1 1.7 93 0.4 NNE 11 13 6 7 1016.4 1017.5 0.0
06/05:30am 2.8 -0.6 2.1 95 0.3 NE 9 11 5 6 1016.6 1017.6 0.0
06/05:24am 2.9 -0.1 2.2 95 0.3 NE 7 9 4 5 1016.7 1017.7 0.0
06/05:00am 3.3 0.6 2.4 94 0.4 ENE 6 9 3 5 1016.8 1017.8 0.0
06/04:30am 3.4 0.1 2.7 95 0.3 NW 9 13 5 7 1016.8 1017.8 0.0
06/04:00am 3.4 -0.6 3.0 97 0.2 WNW 13 20 7 11 1016.9 1017.9 0.0
06/03:30am 3.0 -1.0 2.7 98 0.1 NW 13 20 7 11 1017.0 1018.0 0.0
06/02:30am 2.2 -0.8 1.9 98 0.1 NNE 7 9 4 5 1017.6 1018.7 0.0
06/02:00am 1.5 -1.6 1.2 98 0.1 NE 7 9 4 5 1017.8 1018.9 0.0
06/01:30am 2.4 -0.4 2.3 99 0.0 E 6 9 3 5 1017.9 1019.0 0.0
06/01:00am 2.6 -0.7 2.5 99 0.0 ENE 9 11 5 6 1017.9 1019.0 0.0
06/12:30am 1.2 -2.4 0.9 98 0.1 NE 9 13 5 7 1018.5 1019.6 0.0
06/12:18am 0.8 -2.8 0.5 98 0.1 NE 9 11 5 6 1018.6 1019.7 0.0
 
Date/Time
EST
Tmp

°C
App
Tmp
°C
Dew
Point
°C
Rel
Hum
%
Delta-T

°C
Wind Press
QNH
hPa
Press
MSL
hPa
Rain
since
9 am
mm
Dir
 
Spd
km/h
Gust
km/h
Spd
kts
Gust
kts
05/11:30pm 0.3 -3.0 0.0 98 0.1 NE 7 11 4 6 1018.9 1020.0 0.0
05/11:00pm -1.3 -3.5 -1.9 96 0.2 CALM 0 0 0 0 1018.9 1020.0 0.0
05/10:30pm -0.5 -2.7 -1.2 95 0.2 CALM 0 0 0 0 1018.9 1020.0 0.0
05/10:00pm 0.1 -2.0 -0.6 95 0.3 CALM 0 0 0 0 1018.8 1019.9 0.0
05/09:30pm 1.3 -0.6 0.7 96 0.2 CALM 0 0 0 0 1018.8 1019.9 0.0
05/09:00pm 0.7 -1.5 -1.4 86 0.8 CALM 0 0 0 0 1018.9 1020.0 0.0
05/08:30pm 3.3 0.9 2.3 93 0.4 SSE 4 7 2 4 1019.1 1020.2 0.0
05/08:00pm 2.8 1.0 1.2 89 0.6 CALM 0 0 0 0 1019.2 1020.3 0.0
05/07:30pm 3.3 1.5 1.2 86 0.8 CALM 0 0 0 0 1019.1 1020.2 0.0
05/07:00pm 4.2 1.5 2.6 89 0.7 SSW 6 9 3 5 1019.0 1020.1 0.0
05/06:30pm 3.9 1.8 1.4 84 1.0 NNW 2 7 1 4 1018.8 1019.9 0.0
05/06:00pm 4.5 2.0 1.5 81 1.2 ENE 4 7 2 4 1018.6 1019.7 0.0
05/05:30pm 5.9 2.6 2.5 79 1.4 WNW 9 15 5 8 1018.4 1019.4 0.0
05/05:00pm 6.5 2.1 2.6 76 1.7 W 15 19 8 10 1018.1 1019.2 0.0
05/04:30pm 8.7 4.0 3.3 69 2.4 W 17 19 9 10 1018.3 1019.3 0.0
05/04:00pm 10.5 5.9 3.8 63 3.1 W 17 22 9 12 1018.1 1019.2 0.0
05/03:30pm 10.7 5.5 3.7 62 3.2 WNW 20 24 11 13 1018.3 1019.3 0.0
05/03:00pm 10.4 5.2 3.4 62 3.2 W 20 28 11 15 1018.4 1019.4 0.0
05/02:30pm 11.3 5.6 3.1 57 3.7 WNW 22 28 12 15 1018.4 1019.4 0.0
05/02:00pm 11.4 6.6 2.7 55 3.9 WNW 17 22 9 12 1018.6 1019.7 0.0
05/01:30pm 11.1 6.1 3.6 60 3.4 W 19 26 10 14 1018.8 1019.9 0.0
05/01:00pm 10.9 5.7 3.5 60 3.4 W 20 26 11 14 1019.0 1020.1 0.0
05/12:30pm 10.1 5.4 2.9 61 3.2 WNW 17 20 9 11 1019.5 1020.6 0.0
05/12:00pm 9.0 4.6 2.8 65 2.7 WNW 15 20 8 11 1020.0 1021.1 0.0
05/11:30am 8.3 4.7 2.8 68 2.4 W 11 19 6 10 1020.6 1021.7 0.0
05/11:00am 7.0 2.9 2.3 72 2.0 W 13 17 7 9 1021.1 1022.3 0.0
05/10:30am 5.5 2.1 1.8 77 1.5 NW 9 13 5 7 1021.6 1022.7 0.0
05/10:00am 4.1 0.6 1.3 82 1.1 NNW 9 11 5 6 1021.9 1023.0 0.0
05/09:30am 2.9 -0.2 1.4 90 0.6 NNW 7 9 4 5 1022.1 1023.2 0.0
05/09:00am 1.2 -2.4 0.6 96 0.2 N 9 11 5 6 1022.1 1023.2 0.2
05/08:30am -1.0 -5.3 -1.6 96 0.2 N 11 13 6 7 1022.0 1023.1 0.0
05/08:00am -2.7 -7.6 -3.2 96 0.0 N 13 13 7 7 1022.1 1023.2 0.0
05/07:30am -4.4 -9.1 -5.2 94 0.1 N 11 13 6 7 1022.1 1023.2 0.0
05/07:00am -4.9 -9.3 -5.7 94 0.1 N 9 11 5 6 1022.0 1023.1 0.0
05/06:30am -4.8 -9.2 -5.6 94 0.1 N 9 11 5 6 1021.6 1022.7 0.0
05/06:00am -4.1 -8.4 -4.8 95 0.1 NNW 9 11 5 6 1021.2 1022.4 0.0
05/05:30am -4.5 -8.5 -5.3 94 0.1 N 7 9 4 5 1021.0 1022.1 0.0
05/05:00am -4.0 -8.7 -4.7 95 0.1 N 11 13 6 7 1021.0 1022.1 0.0
05/04:30am -4.7 -8.5 -5.5 94 0.1 N 6 9 3 5 1021.0 1022.1 0.0
05/04:00am -4.4 -7.0 -5.2 94 0.1 CALM 0 0 0 0 1021.2 1022.4 0.0
05/03:30am -4.0 -6.6 -4.8 94 0.1 CALM 0 0 0 0 1021.6 1022.7 0.0
05/03:00am -3.5 -6.0 -4.2 95 0.1 CALM 0 0 0 0 1021.7 1022.8 0.0
05/02:30am -2.8 -5.2 -3.5 95 0.1 CALM 0 0 0 0 1021.9 1023.0 0.0
05/02:00am -3.1 -6.9 -3.9 94 0.1 N 7 9 4 5 1022.2 1023.3 0.0
05/01:30am -4.1 -8.8 -5.3 91 0.2 NNW 11 13 6 7 1022.1 1023.2 0.0
05/01:00am -3.4 -7.7 -4.4 93 0.2 NNW 9 11 5 6 1021.9 1023.0 0.0
05/12:30am -3.3 -6.9 -4.0 95 0.1 NW 6 11 3 6 1021.8 1022.9 0.0
05/12:00am -2.8 -5.2 -3.5 95 0.1 CALM 0 0 0 0 1022.0 1023.1 0.0
 
Date/Time
EST
Tmp

°C
App
Tmp
°C
Dew
Point
°C
Rel
Hum
%
Delta-T

°C
Wind Press
QNH
hPa
Press
MSL
hPa
Rain
since
9 am
mm
Dir
 
Spd
km/h
Gust
km/h
Spd
kts
Gust
kts
04/11:30pm -2.9 -5.4 -3.6 95 0.1 CALM 0 0 0 0 1022.2 1023.3 0.0
04/11:00pm -3.0 -5.5 -4.3 91 0.3 CALM 0 7 0 4 1022.3 1023.4 0.0
04/10:30pm -2.4 -4.8 -3.5 92 0.3 CALM 0 0 0 0 1022.3 1023.4 0.0
04/10:00pm -1.1 -3.4 -2.4 91 0.4 CALM 0 0 0 0 1022.3 1023.4 0.0
04/09:30pm -0.3 -4.6 -1.7 90 0.5 NNW 11 13 6 7 1022.3 1023.4 0.0
04/09:00pm -0.4 -4.0 -2.3 87 0.7 N 7 9 4 5 1022.2 1023.3 0.0
04/08:30pm -0.3 -4.3 -1.9 89 0.6 NNE 9 13 5 7 1022.5 1023.7 0.0
04/08:00pm 0.7 -2.7 -0.9 89 0.6 N 7 9 4 5 1022.5 1023.7 0.0
04/07:30pm 0.3 -1.9 -1.4 88 0.6 CALM 0 6 0 3 1022.7 1023.9 0.0
04/07:00pm 0.4 -3.9 -1.8 85 0.8 W 11 15 6 8 1022.5 1023.7 0.0
04/06:30pm 1.9 -0.2 -0.7 83 1.0 CALM 0 2 0 1 1022.4 1023.6 0.0
04/06:00pm 2.1 -2.8 -0.8 81 1.1 W 15 20 8 11 1022.1 1023.2 0.0
04/05:30pm 3.4 -2.2 -0.2 77 1.4 WNW 19 22 10 12 1021.6 1022.7 0.0
04/05:00pm 4.8 -0.4 -0.2 70 2.0 W 17 22 9 12 1021.4 1022.6 0.0
04/04:30pm 6.4 1.6 0.3 65 2.5 W 15 20 8 11 1021.2 1022.4 0.0
04/04:00pm 7.3 0.5 0.5 62 2.8 W 26 32 14 17 1021.1 1022.3 0.0
04/03:30pm 8.0 2.9 0.7 60 3.0 WNW 17 24 9 13 1021.1 1022.3 0.0
04/03:00pm 8.0 1.1 0.0 57 3.3 W 26 37 14 20 1021.0 1022.1 0.0
04/02:30pm 8.2 1.7 0.0 56 3.4 W 24 30 13 16 1020.6 1021.7 0.0
04/02:00pm 8.2 1.3 0.4 58 3.2 WNW 26 33 14 18 1020.5 1021.6 0.0
04/01:30pm 7.7 0.5 0.9 62 2.8 WNW 28 37 15 20 1020.8 1021.9 0.0
04/01:00pm 7.4 -0.6 0.6 62 2.8 WNW 32 39 17 21 1021.0 1022.1 0.0
04/12:30pm 7.3 -0.3 0.5 62 2.8 WNW 30 41 16 22 1021.4 1022.6 0.0
04/12:00pm 6.2 -1.8 0.3 66 2.4 WNW 32 41 17 22 1021.7 1022.8 0.0
04/11:30am 6.0 -2.1 -0.3 64 2.5 WNW 32 41 17 22 1022.0 1023.1 0.0
04/11:00am 5.9 -2.4 -0.4 64 2.5 WNW 33 43 18 23 1022.4 1023.6 0.0
04/10:30am 5.5 -1.7 0.5 70 2.0 WNW 28 39 15 21 1022.5 1023.7 0.0
04/10:00am 4.1 -4.0 -0.5 72 1.8 WNW 32 41 17 22 1022.4 1023.6 0.0
04/09:30am 4.1 -2.4 0.4 77 1.5 W 24 37 13 20 1022.2 1023.3 0.0
04/09:00am 3.1 -1.4 0.0 80 1.2 NW 13 22 7 12 1022.2 1023.3 0.0
04/08:30am 2.4 -2.1 -0.4 82 1.1 NW 13 17 7 9 1022.2 1023.3 0.0
04/08:00am 1.5 -5.2 -0.9 84 0.9 NW 24 33 13 18 1021.9 1023.0 0.0
04/07:30am 1.0 -3.6 -1.1 86 0.8 NW 13 20 7 11 1022.1 1023.2 0.0
04/07:00am 1.0 -4.9 -1.1 86 0.8 NW 20 26 11 14 1021.9 1023.0 0.0
04/06:30am 0.6 -4.0 -1.2 88 0.7 NW 13 17 7 9 1021.9 1023.0 0.0
04/06:00am 0.4 -5.0 -1.2 89 0.6 NW 17 19 9 10 1021.7 1022.8 0.0
04/05:30am 0.3 -4.7 -1.0 91 0.5 NW 15 19 8 10 1021.9 1023.0 0.0
04/05:00am -0.5 -5.5 -1.5 93 0.3 NNW 15 19 8 10 1021.7 1022.8 0.0
04/04:30am -1.5 -5.9 -2.8 91 0.4 N 11 13 6 7 1021.8 1022.9 0.0
04/04:00am -1.1 -5.9 -2.4 91 0.4 NW 13 13 7 7 1022.0 1023.1 0.0
04/03:30am -0.5 -6.5 -1.8 91 0.4 WNW 20 24 11 13 1022.1 1023.2 0.0
04/03:00am -1.1 -5.9 -2.7 89 0.5 NW 13 17 7 9 1022.4 1023.6 0.0
04/02:30am -0.1 -5.9 -1.5 90 0.5 WNW 19 24 10 13 1022.7 1023.9 0.0
04/02:00am -2.1 -5.8 -3.1 93 0.2 NW 7 13 4 7 1022.8 1024.0 0.0
04/01:30am -2.0 -5.5 -3.1 92 0.3 NNE 6 9 3 5 1023.4 1024.5 0.0
04/01:00am -2.2 -5.0 -3.2 93 0.2 NNE 2 7 1 4 1023.3 1024.4 0.0
04/12:30am -2.2 -5.7 -3.2 93 0.2 ENE 6 9 3 5 1023.0 1024.2 0.0
04/12:00am -2.6 -5.1 -3.9 91 0.3 CALM 0 4 0 2 1023.9 1025.1 0.0
 
Date/Time
EST
Tmp

°C
App
Tmp
°C
Dew
Point
°C
Rel
Hum
%
Delta-T

°C
Wind Press
QNH
hPa
Press
MSL
hPa
Rain
since
9 am
mm
Dir
 
Spd
km/h
Gust
km/h
Spd
kts
Gust
kts
03/11:30pm -3.1 -7.0 -4.5 90 0.3 W 7 9 4 5 1024.1 1025.3 0.0
03/11:00pm -3.0 -8.1 -5.2 85 0.6 WNW 13 13 7 7 1024.2 1025.4 0.0
03/10:30pm -1.8 -6.3 -3.1 91 0.4 NNW 11 15 6 8 1024.4 1025.6 0.0
03/10:00pm -2.3 -6.9 -4.5 85 0.6 NW 11 13 6 7 1024.6 1025.8 0.0
03/09:30pm -1.6 -5.2 -3.8 85 0.7 N 6 7 3 4 1024.9 1026.0 0.0
03/09:00pm -1.3 -5.8 -3.0 88 0.5 N 11 13 6 7 1024.9 1026.0 0.0
03/08:30pm -1.7 -6.3 -4.0 84 0.7 NNE 11 13 6 7 1024.9 1026.0 0.0
03/08:00pm -1.1 -4.7 -3.4 84 0.7 ENE 6 9 3 5 1024.9 1026.0 0.0
03/07:30pm -0.7 -3.0 -2.6 87 0.6 CALM 0 0 0 0 1024.9 1026.0 0.0
03/07:00pm -0.1 -2.4 -2.3 85 0.8 CALM 0 0 0 0 1024.9 1026.0 0.0
03/06:30pm 0.7 -1.5 -1.4 86 0.8 CALM 0 0 0 0 1025.0 1026.1 0.0
03/06:00pm -0.1 -5.0 -3.1 80 1.0 W 13 15 7 8 1024.6 1025.8 0.0
03/05:30pm 2.3 -3.1 -1.5 76 1.4 W 17 17 9 9 1024.5 1025.7 0.0
03/05:00pm 4.0 -0.7 -1.8 66 2.2 W 13 17 7 9 1024.1 1025.3 0.0
03/04:30pm 7.4 3.6 -1.0 55 3.3 W 9 11 5 6 1024.1 1025.3 0.0
03/04:00pm 8.6 3.9 -1.8 48 4.1 W 13 15 7 8 1024.3 1025.5 0.0
03/03:30pm 9.0 4.7 -1.4 48 4.2 NW 11 15 6 8 1024.3 1025.5 0.0
03/03:00pm 8.7 4.0 -2.0 47 4.2 W 13 19 7 10 1024.1 1025.3 0.0
03/02:30pm 8.8 4.5 -1.6 48 4.1 WNW 11 13 6 7 1024.1 1025.3 0.0
03/02:00pm 8.8 5.7 -2.5 45 4.4 NNW 4 9 2 5 1024.2 1025.4 0.0
03/01:30pm 8.9 5.6 -0.9 50 4.0 WSW 6 9 3 5 1024.5 1025.7 0.0
03/01:00pm 8.3 4.9 -1.8 49 4.0 NE 6 9 3 5 1025.0 1026.1 0.0
03/12:30pm 7.0 3.6 -2.4 51 3.6 SSE 6 9 3 5 1025.8 1027.0 0.0
03/12:00pm 7.1 3.5 -2.1 52 3.5 N 7 9 4 5 1026.0 1027.2 0.0
03/11:30am 6.5 3.6 -1.4 57 3.1 NNE 4 7 2 4 1026.3 1027.6 0.0

Latest Capital City Observations: Canberra | Sydney | Melbourne | Brisbane | Adelaide | Perth | Hobart | Darwin

Other Formats:

Comma delimited format used in spreadsheet applications
http://www.bom.gov.au/fwo/IDN60903/IDN60903.95716.axf

JavaScript Object Notation format (JSON) in row-major order
http://www.bom.gov.au/fwo/IDN60903/IDN60903.95716.json